createdAt,value
2019-03-09T00:01:17.371Z,9.03
2019-03-09T00:03:43.407Z,5.73
2019-03-09T00:06:09.408Z,8.47
2019-03-09T00:08:35.422Z,5.83
2019-03-09T00:11:01.439Z,6.07
2019-03-09T00:13:27.459Z,5.63
2019-03-09T00:15:53.465Z,9.73
2019-03-09T00:18:19.493Z,9.37
2019-03-09T00:20:45.506Z,7.43
2019-03-09T00:23:13.415Z,7.57
2019-03-09T00:25:58.036Z,8.23
2019-03-09T00:28:29.231Z,7.17
2019-03-09T00:31:06.431Z,8.73
2019-03-09T00:33:32.427Z,5.00
2019-03-09T00:35:58.486Z,8.70
2019-03-09T00:38:24.509Z,6.00
2019-03-09T00:40:50.527Z,2.93
2019-03-09T00:43:16.671Z,5.80
2019-03-09T00:45:42.974Z,9.40
2019-03-09T00:48:09.008Z,10.47
2019-03-09T00:50:35.372Z,6.90
2019-03-09T00:53:01.388Z,8.47
2019-03-09T00:55:27.411Z,6.47
2019-03-09T00:57:53.434Z,11.03
2019-03-09T01:00:19.447Z,4.73
2019-03-09T01:02:45.574Z,6.17
2019-03-09T01:05:11.982Z,7.43
2019-03-09T01:07:38.007Z,5.07
2019-03-09T01:10:12.931Z,11.33
2019-03-09T01:12:39.508Z,6.57
2019-03-09T01:15:06.838Z,5.63
2019-03-09T01:17:32.908Z,13.60
2019-03-09T01:19:58.919Z,11.17
2019-03-09T01:22:24.936Z,9.03
2019-03-09T01:24:50.951Z,5.97
2019-03-09T01:27:16.965Z,6.90
2019-03-09T01:29:42.978Z,7.80
2019-03-09T01:32:09.311Z,8.10
2019-03-09T01:34:35.643Z,7.07
2019-03-09T01:37:01.668Z,7.03
2019-03-09T01:39:27.666Z,8.77
2019-03-09T01:41:53.716Z,6.57
2019-03-09T01:44:19.750Z,7.10
2019-03-09T01:46:46.087Z,9.23
2019-03-09T01:49:12.116Z,6.23
2019-03-09T01:51:38.422Z,6.97
2019-03-09T01:54:04.451Z,6.07
2019-03-09T01:56:30.782Z,3.23
2019-03-09T01:58:56.806Z,5.63
2019-03-09T02:01:22.817Z,8.53
2019-03-09T02:03:48.837Z,3.93
2019-03-09T02:06:15.184Z,4.60
2019-03-09T02:08:41.198Z,6.57
2019-03-09T02:11:07.234Z,6.93
2019-03-09T02:13:33.241Z,5.97
2019-03-09T02:15:59.272Z,8.70
2019-03-09T02:18:25.307Z,8.67
2019-03-09T02:20:51.324Z,7.27
2019-03-09T02:23:17.658Z,4.80
2019-03-09T02:25:43.687Z,2.70
2019-03-09T02:28:10.026Z,7.13
2019-03-09T02:30:36.053Z,8.97
2019-03-09T02:33:02.251Z,4.97
2019-03-09T02:35:28.282Z,4.83
2019-03-09T02:37:55.086Z,3.33
2019-03-09T02:40:23.427Z,5.03
2019-03-09T02:42:49.530Z,3.37
2019-03-09T02:45:20.387Z,5.87
2019-03-09T02:47:46.415Z,4.17
2019-03-09T02:50:13.723Z,7.90
2019-03-09T02:52:39.734Z,5.20
2019-03-09T02:55:07.576Z,3.70
2019-03-09T02:57:33.878Z,5.03
2019-03-09T03:00:01.115Z,5.33
2019-03-09T03:02:29.809Z,6.47
2019-03-09T03:04:55.973Z,4.37
2019-03-09T03:07:21.994Z,4.57
2019-03-09T03:09:48.000Z,7.03
2019-03-09T03:12:14.004Z,9.10
2019-03-09T03:14:40.018Z,3.40
2019-03-09T03:17:06.068Z,4.33
2019-03-09T03:19:32.074Z,4.43
2019-03-09T03:21:58.074Z,4.37
2019-03-09T03:24:24.104Z,6.23
2019-03-09T03:26:50.376Z,6.63
2019-03-09T03:29:16.702Z,5.13
2019-03-09T03:31:43.031Z,4.60
2019-03-09T03:34:09.371Z,6.60
2019-03-09T03:36:35.375Z,4.27
2019-03-09T03:39:01.826Z,4.93
2019-03-09T03:41:28.159Z,2.77
2019-03-09T03:43:54.591Z,4.60
2019-03-09T03:46:20.926Z,2.13
2019-03-09T03:48:46.948Z,7.83
2019-03-09T03:51:13.274Z,3.27
2019-03-09T03:53:39.301Z,3.97
2019-03-09T03:56:05.634Z,2.50
2019-03-09T03:58:31.966Z,5.27
2019-03-09T04:00:58.306Z,3.23
2019-03-09T04:03:24.629Z,3.97
2019-03-09T04:05:50.644Z,2.67
2019-03-09T04:08:17.079Z,5.50
2019-03-09T04:10:43.100Z,4.90
2019-03-09T04:13:09.218Z,3.73
2019-03-09T04:15:35.238Z,1.70
2019-03-09T04:18:01.233Z,6.60
2019-03-09T04:20:27.253Z,1.40
2019-03-09T04:22:53.279Z,4.10
2019-03-09T04:25:19.281Z,1.73
2019-03-09T04:27:45.298Z,2.17
2019-03-09T04:30:12.232Z,2.90
2019-03-09T04:32:38.553Z,2.60
2019-03-09T04:35:05.289Z,2.40
2019-03-09T04:37:31.290Z,5.63
2019-03-09T04:39:57.561Z,3.67
2019-03-09T04:42:23.684Z,6.77
2019-03-09T04:44:49.909Z,4.03
2019-03-09T04:47:15.939Z,1.40
2019-03-09T04:49:41.961Z,4.53
2019-03-09T04:52:07.989Z,1.40
2019-03-09T04:54:34.007Z,1.33
2019-03-09T04:57:00.022Z,1.80
2019-03-09T04:59:26.035Z,2.47
2019-03-09T05:01:52.067Z,1.93
2019-03-09T05:04:21.873Z,2.47
2019-03-09T05:06:47.911Z,3.50
2019-03-09T05:09:17.733Z,2.63
2019-03-09T05:11:43.873Z,2.20
2019-03-09T05:14:09.897Z,2.73
2019-03-09T05:16:35.893Z,2.10
2019-03-09T05:19:01.911Z,2.13
2019-03-09T05:21:27.937Z,0.97
2019-03-09T05:23:53.946Z,1.80
2019-03-09T05:26:20.201Z,5.43
2019-03-09T05:28:46.538Z,2.13
2019-03-09T05:31:12.875Z,1.87
2019-03-09T05:33:38.892Z,1.67
2019-03-09T05:36:04.900Z,1.40
2019-03-09T05:38:31.255Z,1.60
2019-03-09T05:40:57.582Z,2.37
2019-03-09T05:43:23.828Z,1.93
2019-03-09T05:45:49.845Z,1.40
2019-03-09T05:48:15.850Z,1.30
2019-03-09T05:50:41.859Z,1.00
2019-03-09T05:53:13.989Z,1.10
2019-03-09T05:55:40.014Z,1.10
2019-03-09T05:58:06.014Z,1.10
2019-03-09T06:00:33.131Z,1.23
2019-03-09T06:02:59.117Z,1.33
2019-03-09T06:05:28.253Z,0.90
2019-03-09T06:07:54.258Z,1.83
2019-03-09T06:10:20.268Z,2.37
2019-03-09T06:12:46.314Z,1.33
2019-03-09T06:15:12.326Z,0.87
2019-03-09T06:17:38.594Z,1.00
2019-03-09T06:20:04.935Z,0.70
2019-03-09T06:22:31.261Z,0.83
2019-03-09T06:24:57.279Z,1.70
2019-03-09T06:27:23.279Z,1.07
2019-03-09T06:29:49.291Z,0.93
2019-03-09T06:32:34.728Z,0.50
2019-03-09T06:35:01.250Z,1.07
2019-03-09T06:37:28.506Z,1.73
2019-03-09T06:39:55.714Z,0.70
2019-03-09T06:42:34.564Z,0.90
2019-03-09T06:45:00.598Z,1.10
2019-03-09T06:47:26.730Z,1.40
2019-03-09T06:49:52.717Z,1.67
2019-03-09T06:52:18.978Z,0.80
2019-03-09T06:54:44.998Z,0.97
2019-03-09T06:57:14.138Z,0.77
2019-03-09T06:59:38.959Z,1.17
2019-03-09T07:02:04.980Z,1.33
2019-03-09T07:04:31.128Z,0.70
2019-03-09T07:06:57.193Z,0.60
2019-03-09T07:09:23.216Z,0.70
2019-03-09T07:11:49.230Z,1.27
2019-03-09T07:14:54.152Z,1.00
2019-03-09T07:17:20.166Z,0.50
2019-03-09T07:19:46.199Z,0.60
2019-03-09T07:22:12.225Z,0.57
2019-03-09T07:24:38.561Z,0.60
2019-03-09T07:27:04.581Z,0.67
2019-03-09T07:29:30.615Z,0.40
2019-03-09T07:31:56.626Z,0.30
2019-03-09T07:34:24.778Z,0.43
2019-03-09T07:36:50.794Z,1.33
2019-03-09T07:39:17.065Z,0.83
2019-03-09T07:41:43.070Z,0.33
2019-03-09T07:44:09.085Z,0.30
2019-03-09T07:46:35.102Z,0.40
2019-03-09T07:49:01.133Z,0.50
2019-03-09T07:51:27.391Z,1.50
2019-03-09T07:53:53.404Z,1.53
2019-03-09T07:56:19.431Z,0.47
2019-03-09T07:58:45.475Z,0.40
2019-03-09T08:01:11.793Z,0.40
2019-03-09T08:03:37.799Z,0.50
2019-03-09T08:06:03.831Z,2.53
2019-03-09T08:08:30.176Z,0.67
2019-03-09T08:10:56.198Z,3.27
2019-03-09T08:13:22.221Z,0.90
2019-03-09T08:15:48.274Z,1.47
2019-03-09T08:18:14.697Z,1.47
2019-03-09T08:20:40.712Z,0.50
2019-03-09T08:23:06.724Z,0.60
2019-03-09T08:25:32.734Z,0.50
2019-03-09T08:27:59.102Z,2.93
2019-03-09T08:30:26.505Z,2.50
2019-03-09T08:32:52.804Z,0.40
2019-03-09T08:35:19.239Z,0.60
2019-03-09T08:37:45.790Z,1.53
2019-03-09T08:40:13.676Z,2.67
2019-03-09T08:42:39.683Z,0.67
2019-03-09T08:45:08.307Z,4.70
2019-03-09T08:47:34.567Z,0.50
2019-03-09T08:50:00.578Z,0.50
2019-03-09T08:52:26.606Z,1.40
2019-03-09T08:54:52.632Z,0.57
2019-03-09T08:57:18.964Z,1.27
2019-03-09T08:59:44.978Z,2.00
2019-03-09T09:02:11.018Z,1.43
2019-03-09T09:04:37.446Z,0.50
2019-03-09T09:07:03.688Z,0.53
2019-03-09T09:09:29.689Z,1.27
2019-03-09T09:11:55.712Z,0.60
2019-03-09T09:14:21.717Z,0.87
2019-03-09T09:16:47.748Z,1.40
2019-03-09T09:19:14.031Z,1.00
2019-03-09T09:21:40.046Z,1.83
2019-03-09T09:24:06.057Z,3.87
2019-03-09T09:26:32.077Z,0.77
2019-03-09T09:28:58.408Z,1.57
2019-03-09T09:31:24.446Z,2.37
2019-03-09T09:33:50.457Z,1.17
2019-03-09T09:36:16.781Z,1.23
2019-03-09T09:38:43.118Z,0.43
2019-03-09T09:41:09.129Z,0.67
2019-03-09T09:43:35.161Z,0.50
2019-03-09T09:46:01.170Z,3.27
2019-03-09T09:48:27.188Z,0.90
2019-03-09T09:50:53.538Z,0.80
2019-03-09T09:53:19.566Z,0.40
2019-03-09T09:55:45.589Z,1.07
2019-03-09T09:58:11.623Z,0.50
2019-03-09T10:00:37.938Z,0.77
2019-03-09T10:03:03.949Z,0.40
2019-03-09T10:05:29.963Z,0.67
2019-03-09T10:07:56.225Z,1.77
2019-03-09T10:10:22.580Z,3.90
2019-03-09T10:12:48.584Z,0.63
2019-03-09T10:15:28.636Z,0.60
2019-03-09T10:17:54.962Z,2.40
2019-03-09T10:20:21.287Z,0.93
2019-03-09T10:22:47.602Z,1.37
2019-03-09T10:25:13.644Z,2.07
2019-03-09T10:27:40.082Z,0.70
2019-03-09T10:30:15.729Z,1.40
2019-03-09T10:32:41.749Z,1.10
2019-03-09T10:35:07.997Z,0.93
2019-03-09T10:37:34.010Z,1.73
2019-03-09T10:40:00.043Z,1.67
2019-03-09T10:42:26.093Z,1.43
2019-03-09T10:44:52.338Z,1.33
2019-03-09T10:47:18.670Z,1.00
2019-03-09T10:49:44.672Z,2.93
2019-03-09T10:52:10.700Z,0.60
2019-03-09T10:54:36.720Z,1.40
2019-03-09T10:57:03.021Z,0.77
2019-03-09T10:59:29.058Z,2.77
2019-03-09T11:01:55.098Z,2.30
2019-03-09T11:04:27.469Z,1.47
2019-03-09T11:06:49.037Z,1.00
2019-03-09T11:09:15.034Z,0.80
2019-03-09T11:11:41.066Z,0.80
2019-03-09T11:14:07.093Z,0.73
2019-03-09T11:16:33.129Z,8.77
2019-03-09T11:18:59.141Z,2.40
2019-03-09T11:21:25.181Z,0.93
2019-03-09T11:23:51.294Z,0.87
2019-03-09T11:26:17.686Z,1.13
2019-03-09T11:28:43.697Z,2.67
2019-03-09T11:31:09.713Z,0.63
2019-03-09T11:33:36.007Z,2.67
2019-03-09T11:36:02.020Z,2.00
2019-03-09T11:38:28.302Z,0.90
2019-03-09T11:40:58.569Z,0.80
2019-03-09T11:43:22.284Z,0.50
2019-03-09T11:45:48.626Z,1.20
2019-03-09T11:48:14.957Z,3.77
2019-03-09T11:50:41.294Z,1.07
2019-03-09T11:53:07.622Z,1.50
2019-03-09T11:55:33.659Z,0.97
2019-03-09T11:57:59.666Z,1.27
2019-03-09T12:00:27.594Z,1.67
2019-03-09T12:02:54.073Z,2.37
2019-03-09T12:05:20.121Z,0.83
2019-03-09T12:07:46.125Z,1.23
2019-03-09T12:10:12.772Z,2.47
2019-03-09T12:12:38.785Z,0.97
2019-03-09T12:15:08.190Z,1.93
2019-03-09T12:17:34.317Z,0.87
2019-03-09T12:20:00.649Z,0.60
2019-03-09T12:22:26.656Z,2.37
2019-03-09T12:24:52.662Z,1.27
2019-03-09T12:27:18.698Z,0.97
2019-03-09T12:29:44.705Z,2.63
2019-03-09T12:32:10.731Z,0.90
2019-03-09T12:34:36.750Z,0.73
2019-03-09T12:37:02.784Z,2.20
2019-03-09T12:39:28.790Z,0.70
2019-03-09T12:41:55.210Z,1.23
2019-03-09T12:44:21.201Z,0.70
2019-03-09T12:46:47.223Z,0.70
2019-03-09T12:49:13.555Z,0.63
2019-03-09T12:51:39.573Z,0.60
2019-03-09T12:54:05.608Z,0.70
2019-03-09T12:56:31.629Z,0.60
2019-03-09T12:58:57.642Z,1.03
2019-03-09T13:01:23.682Z,1.13
2019-03-09T13:03:50.066Z,0.73
2019-03-09T13:06:16.132Z,0.63
2019-03-09T13:08:42.158Z,0.90
2019-03-09T13:11:08.186Z,0.63
2019-03-09T13:13:34.191Z,0.57
2019-03-09T13:16:00.199Z,0.70
2019-03-09T13:18:26.436Z,2.33
2019-03-09T13:20:52.451Z,1.10
2019-03-09T13:23:18.712Z,1.30
2019-03-09T13:25:45.137Z,1.17
2019-03-09T13:28:11.146Z,1.30
2019-03-09T13:30:38.005Z,3.23
2019-03-09T13:33:04.034Z,1.03
2019-03-09T13:35:30.051Z,1.23
2019-03-09T13:37:56.074Z,2.17
2019-03-09T13:40:22.509Z,2.60
2019-03-09T13:42:48.730Z,1.30
2019-03-09T13:45:15.740Z,2.37
2019-03-09T13:47:42.333Z,2.43
2019-03-09T13:50:10.514Z,2.60
2019-03-09T13:52:36.558Z,2.70
2019-03-09T13:55:04.357Z,1.37
2019-03-09T13:57:30.378Z,1.57
2019-03-09T13:59:56.722Z,1.00
2019-03-09T14:02:22.763Z,2.07
2019-03-09T14:04:48.780Z,2.43
2019-03-09T14:07:14.809Z,3.13
2019-03-09T14:09:40.819Z,2.83
2019-03-09T14:12:06.843Z,1.23
2019-03-09T14:14:32.866Z,1.40
2019-03-09T14:16:58.899Z,3.73
2019-03-09T14:19:24.907Z,6.23
2019-03-09T14:21:50.931Z,2.60
2019-03-09T14:24:16.930Z,6.10
2019-03-09T14:26:42.947Z,2.50
2019-03-09T14:29:08.969Z,6.07
2019-03-09T14:31:34.991Z,3.33
2019-03-09T14:34:00.990Z,9.07
2019-03-09T14:36:27.008Z,1.03
2019-03-09T14:38:53.016Z,2.80
2019-03-09T14:41:19.046Z,0.60
2019-03-09T14:43:45.078Z,1.10
2019-03-09T14:46:11.083Z,1.73
2019-03-09T14:48:37.094Z,6.80
2019-03-09T14:51:03.122Z,5.40
2019-03-09T14:53:29.389Z,1.17
2019-03-09T14:55:55.414Z,4.40
2019-03-09T14:58:21.748Z,2.07
2019-03-09T15:00:47.770Z,1.67
2019-03-09T15:03:13.764Z,0.97
2019-03-09T15:05:40.044Z,1.27
2019-03-09T15:08:06.064Z,1.10
2019-03-09T15:10:32.083Z,0.87
2019-03-09T15:12:58.081Z,3.33
2019-03-09T15:15:24.111Z,0.43
2019-03-09T15:17:50.124Z,0.60
2019-03-09T15:20:16.333Z,1.63
2019-03-09T15:22:42.356Z,0.90
2019-03-09T15:25:11.675Z,1.20
2019-03-09T15:27:37.685Z,0.50
2019-03-09T15:30:12.404Z,1.27
2019-03-09T15:32:38.656Z,1.73
2019-03-09T15:35:06.189Z,2.00
2019-03-09T15:37:32.482Z,10.50
2019-03-09T15:39:58.539Z,1.43
2019-03-09T15:42:24.557Z,2.77
2019-03-09T15:44:50.581Z,3.30
2019-03-09T15:47:16.617Z,4.03
2019-03-09T15:49:42.639Z,2.23
2019-03-09T15:52:10.387Z,4.77
2019-03-09T15:54:37.301Z,1.83
2019-03-09T15:57:03.407Z,5.60
2019-03-09T15:59:29.659Z,3.40
2019-03-09T16:01:55.995Z,4.30
2019-03-09T16:04:22.005Z,2.73
2019-03-09T16:06:48.016Z,3.50
2019-03-09T16:09:14.042Z,2.70
2019-03-09T16:11:45.114Z,5.17
2019-03-09T16:14:07.971Z,6.60
2019-03-09T16:16:35.245Z,3.33
2019-03-09T16:19:01.254Z,3.60
2019-03-09T16:21:32.595Z,4.70
2019-03-09T16:23:58.613Z,4.17
2019-03-09T16:26:24.725Z,2.27
2019-03-09T16:28:51.071Z,6.17
2019-03-09T16:31:17.936Z,4.37
2019-03-09T16:33:43.937Z,2.87
2019-03-09T16:36:10.117Z,4.33
2019-03-09T16:38:36.139Z,4.67
2019-03-09T16:41:06.822Z,13.03
2019-03-09T16:43:33.162Z,7.57
2019-03-09T16:45:59.198Z,6.23
2019-03-09T16:48:25.508Z,8.33
2019-03-09T16:50:51.547Z,9.23
2019-03-09T16:53:17.572Z,6.07
2019-03-09T16:55:43.598Z,6.77
2019-03-09T16:58:09.614Z,5.50
2019-03-09T17:00:35.637Z,8.73
2019-03-09T17:03:01.641Z,7.20
2019-03-09T17:05:27.926Z,8.60
2019-03-09T17:07:54.167Z,5.57
2019-03-09T17:10:20.194Z,4.30
2019-03-09T17:12:46.203Z,4.67
2019-03-09T17:15:15.286Z,8.70
2019-03-09T17:17:41.333Z,8.80
2019-03-09T17:20:10.407Z,4.57
2019-03-09T17:22:36.404Z,8.83
2019-03-09T17:25:03.724Z,7.17
2019-03-09T17:27:29.721Z,6.23
2019-03-09T17:29:56.005Z,4.90
2019-03-09T17:32:25.730Z,8.97
2019-03-09T17:34:50.635Z,9.50
2019-03-09T17:37:16.646Z,12.00
2019-03-09T17:39:42.663Z,7.03
2019-03-09T17:42:08.692Z,6.67
2019-03-09T17:44:34.715Z,6.67
2019-03-09T17:47:00.749Z,5.70
2019-03-09T17:49:27.069Z,9.47
2019-03-09T17:51:53.111Z,8.30
2019-03-09T17:54:19.124Z,8.37
2019-03-09T17:56:45.368Z,7.27
2019-03-09T17:59:11.596Z,9.13
2019-03-09T18:01:38.522Z,10.13
2019-03-09T18:04:04.852Z,7.63
2019-03-09T18:06:30.877Z,8.43
2019-03-09T18:08:57.282Z,8.13
2019-03-09T18:11:23.304Z,7.07
2019-03-09T18:13:49.308Z,8.60
2019-03-09T18:16:15.312Z,11.73
2019-03-09T18:18:41.333Z,7.93
2019-03-09T18:21:07.643Z,7.80
2019-03-09T18:23:33.649Z,9.07
2019-03-09T18:25:59.680Z,8.37
2019-03-09T18:28:25.690Z,6.80
2019-03-09T18:30:51.697Z,6.37
2019-03-09T18:33:17.716Z,7.10
2019-03-09T18:35:43.768Z,8.07
2019-03-09T18:38:09.782Z,7.73
2019-03-09T18:40:36.058Z,6.97
2019-03-09T18:43:02.375Z,11.87
2019-03-09T18:45:28.381Z,12.27
2019-03-09T18:47:54.414Z,12.13
2019-03-09T18:50:20.426Z,12.73
2019-03-09T18:52:46.450Z,10.23
2019-03-09T18:55:12.553Z,12.40
2019-03-09T18:57:38.584Z,8.57
2019-03-09T19:00:11.503Z,8.43
2019-03-09T19:02:37.522Z,9.43
2019-03-09T19:05:04.128Z,6.23
2019-03-09T19:07:30.147Z,7.63
2019-03-09T19:09:56.394Z,7.63
2019-03-09T19:12:22.424Z,11.40
2019-03-09T19:14:48.678Z,10.00
2019-03-09T19:17:14.698Z,9.63
2019-03-09T19:19:40.693Z,6.60
2019-03-09T19:22:06.725Z,9.10
2019-03-09T19:24:32.733Z,7.13
2019-03-09T19:26:58.758Z,11.33
2019-03-09T19:29:25.034Z,7.00
2019-03-09T19:31:51.074Z,14.70
2019-03-09T19:34:17.113Z,7.73
2019-03-09T19:36:43.137Z,8.57
2019-03-09T19:39:09.169Z,6.57
2019-03-09T19:41:35.200Z,7.03
2019-03-09T19:44:01.210Z,7.93
2019-03-09T19:46:27.233Z,10.33
2019-03-09T19:48:53.289Z,8.57
2019-03-09T19:51:19.306Z,8.17
2019-03-09T19:53:45.665Z,11.93
2019-03-09T19:56:11.800Z,7.67
2019-03-09T19:58:38.195Z,8.80
2019-03-09T20:01:04.218Z,8.20
2019-03-09T20:03:30.234Z,10.47
2019-03-09T20:05:56.253Z,10.90
2019-03-09T20:08:22.249Z,10.17
2019-03-09T20:10:48.266Z,17.30
2019-03-09T20:13:14.277Z,14.57
2019-03-09T20:15:40.289Z,10.53
2019-03-09T20:18:06.293Z,11.20
2019-03-09T20:20:32.310Z,13.93
2019-03-09T20:22:58.344Z,13.07
2019-03-09T20:25:24.353Z,14.37
2019-03-09T20:27:50.406Z,16.20
2019-03-09T20:30:18.914Z,13.43
2019-03-09T20:32:44.935Z,16.20
2019-03-09T20:35:10.960Z,17.27
2019-03-09T20:37:36.969Z,14.70
2019-03-09T20:40:08.584Z,13.40
2019-03-09T20:42:34.820Z,9.77
2019-03-09T20:45:00.846Z,10.23
2019-03-09T20:47:27.175Z,14.60
2019-03-09T20:49:53.190Z,14.20
2019-03-09T20:52:19.636Z,12.80
2019-03-09T20:54:45.653Z,13.10
2019-03-09T20:57:11.657Z,12.70
2019-03-09T20:59:37.698Z,9.77
2019-03-09T21:02:03.697Z,15.00
2019-03-09T21:04:30.065Z,16.47
2019-03-09T21:06:56.408Z,13.20
2019-03-09T21:09:22.424Z,15.30
2019-03-09T21:11:48.446Z,14.93
2019-03-09T21:14:14.461Z,12.33
2019-03-09T21:16:40.484Z,10.97
2019-03-09T21:19:06.493Z,12.63
2019-03-09T21:21:32.492Z,9.53
2019-03-09T21:23:58.540Z,8.27
2019-03-09T21:26:24.541Z,11.50
2019-03-09T21:28:50.561Z,9.17
2019-03-09T21:31:17.658Z,13.87
2019-03-09T21:33:43.678Z,16.13
2019-03-09T21:36:09.678Z,17.20
2019-03-09T21:38:35.937Z,11.03
2019-03-09T21:41:01.962Z,10.60
2019-03-09T21:43:28.119Z,11.93
2019-03-09T21:45:54.172Z,13.67
2019-03-09T21:48:20.174Z,13.87
2019-03-09T21:50:46.201Z,15.97
2019-03-09T21:53:12.547Z,15.23
2019-03-09T21:55:38.566Z,10.17
2019-03-09T21:58:04.574Z,14.20
2019-03-09T22:00:30.868Z,13.83
2019-03-09T22:02:56.871Z,10.33
2019-03-09T22:05:22.891Z,16.90
2019-03-09T22:07:48.902Z,17.53
2019-03-09T22:10:14.914Z,13.67
2019-03-09T22:12:40.929Z,15.70
2019-03-09T22:15:14.055Z,14.40
2019-03-09T22:17:40.316Z,13.10
2019-03-09T22:20:08.899Z,14.17
2019-03-09T22:22:34.910Z,19.80
2019-03-09T22:25:00.914Z,12.47
2019-03-09T22:27:26.926Z,12.03
2019-03-09T22:29:52.914Z,17.33
2019-03-09T22:32:19.664Z,16.67
2019-03-09T22:34:45.811Z,14.23
2019-03-09T22:37:12.087Z,12.43
2019-03-09T22:39:38.426Z,14.20
2019-03-09T22:42:04.461Z,15.47
2019-03-09T22:44:30.461Z,20.73
2019-03-09T22:46:56.489Z,22.90
2019-03-09T22:49:22.844Z,13.20
2019-03-09T22:51:48.876Z,14.53
2019-03-09T22:54:15.182Z,16.83
2019-03-09T22:56:41.204Z,9.30
2019-03-09T22:59:07.543Z,15.00
2019-03-09T23:01:34.075Z,15.43
2019-03-09T23:04:00.077Z,14.17
2019-03-09T23:06:26.438Z,11.87
2019-03-09T23:08:52.761Z,14.27
2019-03-09T23:11:19.094Z,15.10
2019-03-09T23:13:45.119Z,16.70
2019-03-09T23:16:11.130Z,15.30
2019-03-09T23:18:37.146Z,21.27
2019-03-09T23:21:03.160Z,21.97
2019-03-09T23:23:29.225Z,23.30
2019-03-09T23:25:55.286Z,14.87
2019-03-09T23:28:21.664Z,21.33
2019-03-09T23:30:47.674Z,15.23
2019-03-09T23:33:14.029Z,19.40
2019-03-09T23:35:40.034Z,12.80
2019-03-09T23:38:06.050Z,15.43
2019-03-09T23:40:32.061Z,20.07
2019-03-09T23:42:58.073Z,15.30
2019-03-09T23:45:25.881Z,14.43
2019-03-09T23:47:51.923Z,15.83
2019-03-09T23:50:17.933Z,16.63
2019-03-09T23:52:44.790Z,14.80
2019-03-09T23:55:21.205Z,13.87
2019-03-09T23:57:39.738Z,13.40
